createdAt,value
2022-10-18T00:00:12.894Z,1873.00
2022-10-18T00:00:22.934Z,1873.00
2022-10-18T00:00:32.975Z,1873.00
2022-10-18T00:00:43.032Z,1872.00
2022-10-18T00:00:53.077Z,1872.00
2022-10-18T00:01:13.137Z,1873.00
2022-10-18T00:01:23.173Z,1874.00
2022-10-18T00:01:33.227Z,1875.00
2022-10-18T00:01:43.314Z,1875.00
2022-10-18T00:01:53.390Z,1874.00
2022-10-18T00:02:13.542Z,1874.00
2022-10-18T00:02:23.555Z,1871.00
2022-10-18T00:02:33.707Z,1871.00
2022-10-18T00:02:43.676Z,1872.00
2022-10-18T00:02:53.710Z,1871.00
2022-10-18T00:03:13.766Z,1873.00
2022-10-18T00:03:23.807Z,1873.00
2022-10-18T00:03:33.903Z,1871.00
2022-10-18T00:03:43.969Z,1872.00
2022-10-18T00:03:54.018Z,1872.00
2022-10-18T00:04:14.072Z,1871.00
2022-10-18T00:04:24.122Z,1871.00
2022-10-18T00:04:34.176Z,1868.00
2022-10-18T00:04:44.219Z,1870.00
2022-10-18T00:04:54.250Z,1869.00
2022-10-18T00:05:14.335Z,1870.00
2022-10-18T00:05:24.381Z,1871.00
2022-10-18T00:05:34.444Z,1873.00
2022-10-18T00:05:44.502Z,1871.00
2022-10-18T00:05:54.544Z,1870.00
2022-10-18T00:06:14.599Z,1872.00
2022-10-18T00:06:24.639Z,1871.00
2022-10-18T00:06:34.680Z,1871.00
2022-10-18T00:06:44.718Z,1869.00
2022-10-18T00:06:54.762Z,1869.00
2022-10-18T00:07:14.825Z,1866.00
2022-10-18T00:07:24.872Z,1867.00
2022-10-18T00:07:34.912Z,1866.00
2022-10-18T00:07:44.966Z,1866.00
2022-10-18T00:07:55.108Z,1865.00
2022-10-18T00:08:15.059Z,1864.00
2022-10-18T00:08:25.104Z,1864.00
2022-10-18T00:08:35.134Z,1864.00
2022-10-18T00:08:45.179Z,1865.00
2022-10-18T00:08:55.236Z,1864.00
2022-10-18T00:09:15.286Z,1866.00
2022-10-18T00:09:25.329Z,1866.00
2022-10-18T00:09:35.378Z,1866.00
2022-10-18T00:09:45.423Z,1866.00
2022-10-18T00:09:55.474Z,1866.00
2022-10-18T00:10:15.581Z,1866.00
2022-10-18T00:10:25.628Z,1866.00
2022-10-18T00:10:35.666Z,1867.00
2022-10-18T00:10:45.714Z,1865.00
2022-10-18T00:10:55.762Z,1867.00
2022-10-18T00:11:15.818Z,1863.00
2022-10-18T00:11:25.886Z,1862.00
2022-10-18T00:11:35.944Z,1862.00
2022-10-18T00:11:45.984Z,1860.00
2022-10-18T00:11:56.032Z,1860.00
2022-10-18T00:12:16.089Z,1858.00
2022-10-18T00:12:26.127Z,1861.00
2022-10-18T00:12:36.211Z,1861.00
2022-10-18T00:12:56.202Z,1862.00
2022-10-18T00:13:16.257Z,1866.00
2022-10-18T00:13:26.293Z,1868.00
2022-10-18T00:13:36.335Z,1868.00
2022-10-18T00:13:46.374Z,1867.00
2022-10-18T00:13:56.427Z,1866.00
2022-10-18T00:14:16.478Z,1863.00
2022-10-18T00:14:26.522Z,1863.00
2022-10-18T00:14:36.568Z,1864.00
2022-10-18T00:14:46.607Z,1864.00
2022-10-18T00:14:56.647Z,1864.00
2022-10-18T00:15:16.726Z,1860.00
2022-10-18T00:15:26.765Z,1860.00
2022-10-18T00:15:36.804Z,1859.00
2022-10-18T00:15:46.871Z,1858.00
2022-10-18T00:15:56.969Z,1858.00
2022-10-18T00:16:17.019Z,1856.00
2022-10-18T00:16:27.067Z,1855.00
2022-10-18T00:16:37.122Z,1856.00
2022-10-18T00:16:47.158Z,1857.00
2022-10-18T00:16:57.296Z,1856.00
2022-10-18T00:17:17.238Z,1855.00
2022-10-18T00:17:27.428Z,1855.00
2022-10-18T00:17:37.415Z,1854.00
2022-10-18T00:17:47.466Z,1852.00
2022-10-18T00:17:57.537Z,1850.00
2022-10-18T00:18:17.611Z,1850.00
2022-10-18T00:18:27.658Z,1852.00
2022-10-18T00:18:37.698Z,1851.00
2022-10-18T00:18:47.750Z,1852.00
2022-10-18T00:18:57.786Z,1852.00
2022-10-18T00:19:07.839Z,1851.00
2022-10-18T00:19:17.882Z,1851.00
2022-10-18T00:19:29.317Z,1850.00
2022-10-18T00:19:37.989Z,1851.00
2022-10-18T00:19:48.041Z,1851.00
2022-10-18T00:19:58.088Z,1849.00
2022-10-18T00:20:08.141Z,1850.00
2022-10-18T00:20:18.177Z,1851.00
2022-10-18T00:20:28.229Z,1850.00
2022-10-18T00:20:38.274Z,1849.00
2022-10-18T00:20:48.320Z,1848.00
2022-10-18T00:20:58.359Z,1847.00
2022-10-18T00:21:08.426Z,1847.00
2022-10-18T00:21:18.460Z,1848.00
2022-10-18T00:21:28.510Z,1848.00
2022-10-18T00:21:38.582Z,1848.00
2022-10-18T00:21:48.654Z,1850.00
2022-10-18T00:21:58.694Z,1851.00
2022-10-18T00:22:08.739Z,1852.00
2022-10-18T00:22:18.792Z,1853.00
2022-10-18T00:22:29.215Z,1854.00
2022-10-18T00:22:38.879Z,1855.00
2022-10-18T00:22:48.949Z,1854.00
2022-10-18T00:22:59.018Z,1853.00
2022-10-18T00:23:09.064Z,1854.00
2022-10-18T00:23:19.103Z,1853.00
2022-10-18T00:23:29.154Z,1853.00
2022-10-18T00:23:39.209Z,1853.00
2022-10-18T00:23:49.263Z,1852.00
2022-10-18T00:23:59.302Z,1852.00
2022-10-18T00:24:09.340Z,1849.00
2022-10-18T00:24:19.386Z,1848.00
2022-10-18T00:24:29.452Z,1846.00
2022-10-18T00:24:39.493Z,1844.00
2022-10-18T00:24:49.523Z,1844.00
2022-10-18T00:24:59.564Z,1845.00
2022-10-18T00:25:09.622Z,1846.00
2022-10-18T00:25:19.657Z,1847.00
2022-10-18T00:25:29.712Z,1846.00
2022-10-18T00:25:39.764Z,1847.00
2022-10-18T00:25:49.797Z,1847.00
2022-10-18T00:26:09.847Z,1847.00
2022-10-18T00:26:19.893Z,1846.00
2022-10-18T00:26:29.946Z,1844.00
2022-10-18T00:26:39.989Z,1844.00
2022-10-18T00:26:50.037Z,1843.00
2022-10-18T00:27:10.107Z,1841.00
2022-10-18T00:27:20.152Z,1840.00
2022-10-18T00:27:30.189Z,1841.00
2022-10-18T00:27:40.240Z,1841.00
2022-10-18T00:27:50.286Z,1840.00
2022-10-18T00:28:10.347Z,1842.00
2022-10-18T00:28:20.389Z,1844.00
2022-10-18T00:28:30.455Z,1844.00
2022-10-18T00:28:40.572Z,1842.00
2022-10-18T00:28:50.688Z,1842.00
2022-10-18T00:29:10.640Z,1841.00
2022-10-18T00:29:20.688Z,1840.00
2022-10-18T00:29:30.737Z,1841.00
2022-10-18T00:29:40.788Z,1840.00
2022-10-18T00:29:50.847Z,1840.00
2022-10-18T00:30:10.908Z,1839.00
2022-10-18T00:30:20.946Z,1838.00
2022-10-18T00:30:30.991Z,1837.00
2022-10-18T00:30:41.083Z,1838.00
2022-10-18T00:30:51.155Z,1839.00
2022-10-18T00:31:11.210Z,1838.00
2022-10-18T00:31:21.251Z,1836.00
2022-10-18T00:31:31.302Z,1836.00
2022-10-18T00:31:41.351Z,1838.00
2022-10-18T00:31:51.395Z,1838.00
2022-10-18T00:32:11.569Z,1841.00
2022-10-18T00:32:21.611Z,1842.00
2022-10-18T00:32:32.020Z,1843.00
2022-10-18T00:32:41.700Z,1842.00
2022-10-18T00:32:51.741Z,1844.00
2022-10-18T00:33:11.810Z,1844.00
2022-10-18T00:33:21.847Z,1844.00
2022-10-18T00:33:31.899Z,1845.00
2022-10-18T00:33:41.968Z,1843.00
2022-10-18T00:33:52.034Z,1843.00
2022-10-18T00:34:12.104Z,1844.00
2022-10-18T00:34:22.140Z,1844.00
2022-10-18T00:34:32.188Z,1842.00
2022-10-18T00:34:42.234Z,1840.00
2022-10-18T00:34:52.270Z,1840.00
2022-10-18T00:35:12.347Z,1839.00
2022-10-18T00:35:22.395Z,1839.00
2022-10-18T00:35:32.455Z,1838.00
2022-10-18T00:35:42.510Z,1839.00
2022-10-18T00:35:52.573Z,1837.00
2022-10-18T00:36:12.634Z,1838.00
2022-10-18T00:36:22.669Z,1837.00
2022-10-18T00:36:32.714Z,1836.00
2022-10-18T00:36:42.758Z,1835.00
2022-10-18T00:36:52.806Z,1834.00
2022-10-18T00:37:12.859Z,1834.00
2022-10-18T00:37:22.906Z,1833.00
2022-10-18T00:37:32.950Z,1832.00
2022-10-18T00:37:43.006Z,1833.00
2022-10-18T00:37:53.175Z,1832.00
2022-10-18T00:38:13.120Z,1834.00
2022-10-18T00:38:23.167Z,1834.00
2022-10-18T00:38:33.217Z,1833.00
2022-10-18T00:38:43.260Z,1833.00
2022-10-18T00:38:53.301Z,1831.00
2022-10-18T00:39:13.362Z,1832.00
2022-10-18T00:39:23.405Z,1833.00
2022-10-18T00:39:33.440Z,1833.00
2022-10-18T00:39:43.533Z,1834.00
2022-10-18T00:39:53.600Z,1834.00
2022-10-18T00:40:13.667Z,1831.00
2022-10-18T00:40:23.701Z,1831.00
2022-10-18T00:40:33.754Z,1833.00
2022-10-18T00:40:43.794Z,1834.00
2022-10-18T00:40:53.836Z,1832.00
2022-10-18T00:41:13.891Z,1831.00
2022-10-18T00:41:23.929Z,1829.00
2022-10-18T00:41:33.977Z,1828.00
2022-10-18T00:41:44.039Z,1825.00
2022-10-18T00:41:54.094Z,1825.00
2022-10-18T00:42:14.150Z,1824.00
2022-10-18T00:42:24.189Z,1828.00
2022-10-18T00:42:34.520Z,1829.00
2022-10-18T00:42:44.396Z,1827.00
2022-10-18T00:42:54.438Z,1829.00
2022-10-18T00:43:14.500Z,1831.00
2022-10-18T00:43:24.542Z,1831.00
2022-10-18T00:43:34.588Z,1832.00
2022-10-18T00:43:44.638Z,1831.00
2022-10-18T00:43:54.686Z,1830.00
2022-10-18T00:44:14.752Z,1830.00
2022-10-18T00:44:24.795Z,1830.00
2022-10-18T00:44:34.847Z,1831.00
2022-10-18T00:44:44.897Z,1833.00
2022-10-18T00:44:54.941Z,1833.00
2022-10-18T00:45:15.007Z,1833.00
2022-10-18T00:45:25.052Z,1831.00
2022-10-18T00:45:35.109Z,1830.00
2022-10-18T00:45:45.145Z,1828.00
2022-10-18T00:45:55.185Z,1826.00
2022-10-18T00:46:15.238Z,1825.00
2022-10-18T00:46:25.284Z,1825.00
2022-10-18T00:46:35.336Z,1826.00
2022-10-18T00:46:45.380Z,1826.00
2022-10-18T00:46:55.441Z,1827.00
2022-10-18T00:47:15.502Z,1827.00
2022-10-18T00:47:25.542Z,1826.00
2022-10-18T00:47:35.590Z,1827.00
2022-10-18T00:47:45.635Z,1828.00
2022-10-18T00:47:55.701Z,1829.00
2022-10-18T00:48:15.786Z,1830.00
2022-10-18T00:48:25.857Z,1831.00
2022-10-18T00:48:35.902Z,1830.00
2022-10-18T00:48:45.987Z,1831.00
2022-10-18T00:48:56.077Z,1830.00
2022-10-18T00:49:16.190Z,1831.00
2022-10-18T00:49:26.234Z,1832.00
2022-10-18T00:49:36.285Z,1834.00
2022-10-18T00:49:46.327Z,1834.00
2022-10-18T00:49:56.371Z,1832.00
2022-10-18T00:50:16.427Z,1832.00
2022-10-18T00:50:26.462Z,1832.00
2022-10-18T00:50:36.503Z,1832.00
2022-10-18T00:50:46.531Z,1831.00
2022-10-18T00:50:56.582Z,1831.00
2022-10-18T00:51:16.642Z,1828.00
2022-10-18T00:51:26.688Z,1828.00
2022-10-18T00:51:36.739Z,1828.00
2022-10-18T00:51:46.775Z,1826.00
2022-10-18T00:51:56.814Z,1825.00
2022-10-18T00:52:16.874Z,1825.00
2022-10-18T00:52:27.028Z,1826.00
2022-10-18T00:52:37.000Z,1826.00
2022-10-18T00:52:47.040Z,1828.00
2022-10-18T00:52:57.080Z,1829.00
2022-10-18T00:53:17.135Z,1828.00
2022-10-18T00:53:27.188Z,1829.00
2022-10-18T00:53:37.237Z,1830.00
2022-10-18T00:53:47.276Z,1829.00
2022-10-18T00:53:57.326Z,1828.00
2022-10-18T00:54:17.377Z,1830.00
2022-10-18T00:54:27.410Z,1829.00
2022-10-18T00:54:37.447Z,1829.00
2022-10-18T00:54:47.489Z,1831.00
2022-10-18T00:54:57.535Z,1830.00
2022-10-18T00:55:17.595Z,1829.00
2022-10-18T00:55:27.635Z,1829.00
2022-10-18T00:55:37.685Z,1829.00
2022-10-18T00:55:47.727Z,1829.00
2022-10-18T00:55:57.774Z,1831.00
2022-10-18T00:56:07.823Z,1828.00
2022-10-18T00:56:17.871Z,1828.00
2022-10-18T00:56:27.915Z,1828.00
2022-10-18T00:56:37.951Z,1825.00
2022-10-18T00:56:47.999Z,1826.00
2022-10-18T00:56:58.042Z,1827.00
2022-10-18T00:57:08.067Z,1825.00
2022-10-18T00:57:18.110Z,1825.00
2022-10-18T00:57:28.180Z,1827.00
2022-10-18T00:57:38.241Z,1827.00
2022-10-18T00:57:48.342Z,1827.00
2022-10-18T00:57:58.409Z,1827.00
2022-10-18T00:58:08.478Z,1828.00
2022-10-18T00:58:18.517Z,1827.00
2022-10-18T00:58:28.564Z,1829.00
2022-10-18T00:58:38.618Z,1829.00
2022-10-18T00:58:48.660Z,1831.00
2022-10-18T00:58:58.705Z,1832.00
2022-10-18T00:59:08.746Z,1831.00
2022-10-18T00:59:18.787Z,1830.00
2022-10-18T00:59:28.862Z,1831.00
2022-10-18T00:59:38.906Z,1831.00
2022-10-18T00:59:48.953Z,1830.00
2022-10-18T01:00:09.031Z,1831.00
2022-10-18T01:00:19.068Z,1829.00
2022-10-18T01:00:29.117Z,1830.00
2022-10-18T01:00:39.161Z,1829.00
2022-10-18T01:00:49.206Z,1829.00
2022-10-18T01:01:09.289Z,1828.00
2022-10-18T01:01:21.282Z,1829.00
2022-10-18T01:01:29.460Z,1831.00
2022-10-18T01:01:39.610Z,1831.00
2022-10-18T01:01:49.632Z,1831.00
2022-10-18T01:02:09.640Z,1832.00
2022-10-18T01:02:19.721Z,1832.00
2022-10-18T01:02:30.148Z,1833.00
2022-10-18T01:02:39.839Z,1834.00
2022-10-18T01:02:49.878Z,1832.00
2022-10-18T01:03:09.927Z,1832.00
2022-10-18T01:03:19.971Z,1832.00
2022-10-18T01:03:30.019Z,1831.00
2022-10-18T01:03:40.053Z,1831.00
2022-10-18T01:03:50.106Z,1831.00
2022-10-18T01:04:10.162Z,1829.00
2022-10-18T01:04:20.214Z,1830.00
2022-10-18T01:04:30.269Z,1831.00
2022-10-18T01:04:40.313Z,1831.00
2022-10-18T01:04:50.370Z,1831.00
2022-10-18T01:05:10.425Z,1831.00
2022-10-18T01:05:20.469Z,1833.00
2022-10-18T01:05:30.518Z,1834.00
2022-10-18T01:05:40.560Z,1834.00
2022-10-18T01:05:50.610Z,1834.00
2022-10-18T01:06:10.664Z,1832.00
2022-10-18T01:06:20.701Z,1830.00
2022-10-18T01:06:30.739Z,1831.00
2022-10-18T01:06:40.770Z,1830.00
2022-10-18T01:06:50.879Z,1829.00
2022-10-18T01:07:10.974Z,1829.00
2022-10-18T01:07:21.021Z,1830.00
2022-10-18T01:07:31.317Z,1829.00
2022-10-18T01:07:41.119Z,1829.00
2022-10-18T01:07:51.170Z,1829.00
2022-10-18T01:08:11.229Z,1826.00
2022-10-18T01:08:21.278Z,1828.00
2022-10-18T01:08:31.328Z,1827.00
2022-10-18T01:08:41.365Z,1827.00
2022-10-18T01:08:51.445Z,1828.00
2022-10-18T01:09:11.496Z,1825.00
2022-10-18T01:09:21.531Z,1826.00
2022-10-18T01:09:31.579Z,1825.00
2022-10-18T01:09:41.635Z,1826.00
2022-10-18T01:09:51.660Z,1824.00
2022-10-18T01:10:11.729Z,1821.00
2022-10-18T01:10:21.774Z,1821.00
2022-10-18T01:10:31.836Z,1821.00
2022-10-18T01:10:41.879Z,1820.00
2022-10-18T01:10:51.919Z,1818.00
2022-10-18T01:11:11.980Z,1816.00
2022-10-18T01:11:22.019Z,1816.00
2022-10-18T01:11:32.057Z,1817.00
2022-10-18T01:11:42.106Z,1817.00
2022-10-18T01:11:52.150Z,1818.00
2022-10-18T01:12:12.209Z,1818.00
2022-10-18T01:12:22.258Z,1818.00
2022-10-18T01:12:32.299Z,1818.00
2022-10-18T01:12:42.339Z,1817.00
2022-10-18T01:12:52.401Z,1819.00
2022-10-18T01:13:12.466Z,1820.00
2022-10-18T01:13:25.594Z,1819.00
2022-10-18T01:13:32.556Z,1819.00
2022-10-18T01:13:42.590Z,1816.00
2022-10-18T01:13:52.619Z,1817.00
2022-10-18T01:14:12.681Z,1818.00
2022-10-18T01:14:22.732Z,1819.00
2022-10-18T01:14:32.771Z,1818.00
2022-10-18T01:14:42.818Z,1818.00
2022-10-18T01:14:52.874Z,1816.00
2022-10-18T01:15:12.933Z,1817.00
2022-10-18T01:15:22.986Z,1818.00
2022-10-18T01:15:33.053Z,1817.00
2022-10-18T01:15:43.096Z,1816.00
2022-10-18T01:15:53.155Z,1817.00
2022-10-18T01:16:13.283Z,1819.00
2022-10-18T01:16:23.328Z,1821.00
2022-10-18T01:16:33.378Z,1824.00
2022-10-18T01:16:43.422Z,1825.00
2022-10-18T01:16:53.464Z,1823.00
2022-10-18T01:17:13.520Z,1822.00
2022-10-18T01:17:23.567Z,1820.00
2022-10-18T01:17:33.885Z,1820.00
2022-10-18T01:17:43.728Z,1820.00
2022-10-18T01:17:53.779Z,1820.00
2022-10-18T01:18:13.873Z,1814.00
2022-10-18T01:18:23.915Z,1815.00
2022-10-18T01:18:33.966Z,1814.00
2022-10-18T01:18:44.012Z,1814.00
2022-10-18T01:18:54.058Z,1814.00
2022-10-18T01:19:14.128Z,1815.00
2022-10-18T01:19:24.177Z,1815.00
2022-10-18T01:19:34.224Z,1815.00
2022-10-18T01:19:44.263Z,1814.00
2022-10-18T01:19:54.489Z,1813.00
2022-10-18T01:20:14.414Z,1813.00
2022-10-18T01:20:24.457Z,1812.00
2022-10-18T01:20:34.526Z,1813.00
2022-10-18T01:20:44.573Z,1814.00
2022-10-18T01:20:54.624Z,1814.00
2022-10-18T01:21:14.665Z,1813.00
2022-10-18T01:21:24.708Z,1814.00
2022-10-18T01:21:34.762Z,1814.00
2022-10-18T01:21:44.801Z,1815.00
2022-10-18T01:21:54.856Z,1813.00
2022-10-18T01:22:14.918Z,1813.00
2022-10-18T01:22:24.956Z,1814.00
2022-10-18T01:22:35.009Z,1816.00
2022-10-18T01:22:45.052Z,1818.00
2022-10-18T01:22:55.099Z,1817.00
2022-10-18T01:23:15.157Z,1817.00
2022-10-18T01:23:25.201Z,1816.00
2022-10-18T01:23:35.241Z,1816.00
2022-10-18T01:23:45.280Z,1816.00
2022-10-18T01:23:55.328Z,1818.00
2022-10-18T01:24:15.384Z,1819.00
2022-10-18T01:24:25.431Z,1819.00
2022-10-18T01:24:35.481Z,1818.00
2022-10-18T01:24:45.520Z,1818.00
2022-10-18T01:24:55.620Z,1822.00
2022-10-18T01:25:15.732Z,1823.00
2022-10-18T01:25:25.770Z,1823.00
2022-10-18T01:25:35.853Z,1822.00
2022-10-18T01:25:45.894Z,1820.00
2022-10-18T01:25:55.955Z,1819.00
2022-10-18T01:26:16.014Z,1816.00
2022-10-18T01:26:26.050Z,1814.00
2022-10-18T01:26:36.106Z,1814.00
2022-10-18T01:26:46.143Z,1814.00
2022-10-18T01:26:56.189Z,1812.00
2022-10-18T01:27:16.244Z,1812.00
2022-10-18T01:27:26.284Z,1811.00
2022-10-18T01:27:36.327Z,1811.00
2022-10-18T01:27:46.373Z,1811.00
2022-10-18T01:27:56.418Z,1812.00
2022-10-18T01:28:16.482Z,1812.00
2022-10-18T01:28:26.548Z,1813.00
2022-10-18T01:28:36.654Z,1814.00
2022-10-18T01:28:46.792Z,1814.00
2022-10-18T01:28:56.965Z,1812.00
2022-10-18T01:29:16.926Z,1811.00
2022-10-18T01:29:26.974Z,1808.00
2022-10-18T01:29:37.040Z,1807.00
2022-10-18T01:29:47.082Z,1809.00
2022-10-18T01:29:57.129Z,1807.00
2022-10-18T01:30:17.205Z,1805.00
2022-10-18T01:30:27.237Z,1807.00
2022-10-18T01:30:37.295Z,1811.00
2022-10-18T01:30:47.343Z,1814.00
2022-10-18T01:30:57.395Z,1811.00
2022-10-18T01:31:17.458Z,1810.00
2022-10-18T01:31:27.495Z,1812.00
2022-10-18T01:31:37.545Z,1810.00
2022-10-18T01:31:47.608Z,1809.00
2022-10-18T01:31:59.498Z,1809.00
2022-10-18T01:32:07.705Z,1810.00
2022-10-18T01:32:17.751Z,1809.00
2022-10-18T01:32:27.801Z,1807.00
2022-10-18T01:32:37.851Z,1806.00
2022-10-18T01:32:47.889Z,1806.00
2022-10-18T01:32:57.933Z,1805.00
2022-10-18T01:33:08.003Z,1807.00
2022-10-18T01:33:18.046Z,1806.00
2022-10-18T01:33:28.106Z,1806.00
2022-10-18T01:33:38.138Z,1803.00
2022-10-18T01:33:48.263Z,1802.00
2022-10-18T01:34:08.340Z,1803.00
2022-10-18T01:34:18.385Z,1802.00
2022-10-18T01:34:28.431Z,1800.00
2022-10-18T01:34:38.472Z,1800.00
2022-10-18T01:34:48.515Z,1800.00
2022-10-18T01:35:08.577Z,1798.00
2022-10-18T01:35:18.632Z,1797.00
2022-10-18T01:35:28.666Z,1797.00
2022-10-18T01:35:38.715Z,1797.00
2022-10-18T01:35:48.756Z,1798.00
2022-10-18T01:36:08.826Z,1799.00
2022-10-18T01:36:18.858Z,1800.00
2022-10-18T01:36:28.903Z,1800.00
2022-10-18T01:36:38.951Z,1800.00
2022-10-18T01:36:49.001Z,1799.00
2022-10-18T01:37:09.057Z,1798.00
2022-10-18T01:37:19.093Z,1797.00
2022-10-18T01:37:29.588Z,1796.00
2022-10-18T01:37:39.262Z,1797.00
2022-10-18T01:37:49.304Z,1796.00
2022-10-18T01:38:09.384Z,1797.00
2022-10-18T01:38:19.421Z,1797.00
2022-10-18T01:38:29.483Z,1797.00
2022-10-18T01:38:39.578Z,1796.00
2022-10-18T01:38:49.610Z,1796.00
2022-10-18T01:39:09.687Z,1793.00
2022-10-18T01:39:19.718Z,1791.00
2022-10-18T01:39:29.839Z,1790.00
2022-10-18T01:39:39.880Z,1790.00
2022-10-18T01:39:49.922Z,1790.00
2022-10-18T01:40:09.988Z,1789.00
2022-10-18T01:40:20.032Z,1788.00
2022-10-18T01:40:30.072Z,1787.00
2022-10-18T01:40:40.118Z,1787.00
2022-10-18T01:40:50.170Z,1788.00
2022-10-18T01:41:13.262Z,1790.00
2022-10-18T01:41:20.343Z,1789.00
2022-10-18T01:41:30.383Z,1787.00
2022-10-18T01:41:40.431Z,1786.00
2022-10-18T01:41:50.458Z,1786.00
2022-10-18T01:42:10.496Z,1785.00
2022-10-18T01:42:20.530Z,1787.00
2022-10-18T01:42:30.569Z,1790.00
2022-10-18T01:42:40.617Z,1790.00
2022-10-18T01:42:50.665Z,1790.00
2022-10-18T01:43:10.759Z,1789.00
2022-10-18T01:43:20.795Z,1790.00
2022-10-18T01:43:30.834Z,1792.00
2022-10-18T01:43:40.888Z,1793.00
2022-10-18T01:43:50.937Z,1793.00
2022-10-18T01:44:10.988Z,1793.00
2022-10-18T01:44:21.027Z,1792.00
2022-10-18T01:44:31.079Z,1792.00
2022-10-18T01:44:41.127Z,1792.00
2022-10-18T01:44:51.173Z,1793.00
2022-10-18T01:45:11.249Z,1791.00
2022-10-18T01:45:21.287Z,1794.00
2022-10-18T01:45:31.330Z,1790.00
2022-10-18T01:45:41.366Z,1789.00
2022-10-18T01:45:51.405Z,1793.00
2022-10-18T01:46:11.458Z,1791.00
2022-10-18T01:46:21.509Z,1791.00
2022-10-18T01:46:31.548Z,1793.00
2022-10-18T01:46:41.586Z,1794.00
2022-10-18T01:46:51.634Z,1798.00
2022-10-18T01:47:11.693Z,1801.00
2022-10-18T01:47:21.738Z,1798.00
2022-10-18T01:47:32.103Z,1798.00
2022-10-18T01:47:41.856Z,1798.00
2022-10-18T01:47:51.898Z,1798.00
2022-10-18T01:48:11.981Z,1796.00
2022-10-18T01:48:22.016Z,1798.00
2022-10-18T01:48:32.057Z,1798.00
2022-10-18T01:48:42.104Z,1797.00
2022-10-18T01:48:52.154Z,1794.00
2022-10-18T01:49:12.224Z,1790.00
2022-10-18T01:49:22.355Z,1789.00
2022-10-18T01:49:32.399Z,1790.00
2022-10-18T01:49:42.438Z,1790.00
2022-10-18T01:49:52.483Z,1791.00
2022-10-18T01:50:12.544Z,1790.00
2022-10-18T01:50:22.575Z,1790.00
2022-10-18T01:50:32.654Z,1791.00
2022-10-18T01:50:42.693Z,1792.00
2022-10-18T01:50:52.741Z,1791.00
2022-10-18T01:51:12.817Z,1791.00
2022-10-18T01:51:22.872Z,1792.00
2022-10-18T01:51:32.913Z,1792.00
2022-10-18T01:51:42.951Z,1793.00
2022-10-18T01:51:53.033Z,1794.00
2022-10-18T01:52:13.158Z,1793.00
2022-10-18T01:52:23.191Z,1793.00
2022-10-18T01:52:33.459Z,1792.00
2022-10-18T01:52:43.268Z,1791.00
2022-10-18T01:52:53.309Z,1791.00
2022-10-18T01:53:13.378Z,1789.00
2022-10-18T01:53:23.421Z,1787.00
2022-10-18T01:53:33.459Z,1786.00
2022-10-18T01:53:43.511Z,1785.00
2022-10-18T01:53:53.574Z,1787.00
2022-10-18T01:54:13.647Z,1787.00
2022-10-18T01:54:23.690Z,1785.00
2022-10-18T01:54:33.742Z,1783.00
2022-10-18T01:54:43.779Z,1784.00
2022-10-18T01:54:53.818Z,1781.00
2022-10-18T01:55:03.869Z,1782.00
2022-10-18T01:55:13.922Z,1782.00
2022-10-18T01:55:23.971Z,1784.00
2022-10-18T01:55:34.018Z,1783.00
2022-10-18T01:55:44.060Z,1783.00
2022-10-18T01:55:54.104Z,1780.00
2022-10-18T01:56:04.148Z,1779.00
2022-10-18T01:56:14.221Z,1779.00
2022-10-18T01:56:24.261Z,1780.00
2022-10-18T01:56:34.307Z,1779.00
2022-10-18T01:56:44.354Z,1778.00
2022-10-18T01:56:54.392Z,1778.00
2022-10-18T01:57:04.435Z,1777.00
2022-10-18T01:57:14.476Z,1778.00
2022-10-18T01:57:24.519Z,1779.00
2022-10-18T01:57:34.564Z,1779.00
2022-10-18T01:57:44.596Z,1781.00
2022-10-18T01:57:54.649Z,1780.00
2022-10-18T01:58:04.692Z,1777.00
2022-10-18T01:58:14.733Z,1777.00
2022-10-18T01:58:24.777Z,1781.00
2022-10-18T01:58:34.824Z,1779.00
2022-10-18T01:58:44.873Z,1779.00
2022-10-18T01:58:54.918Z,1780.00
2022-10-18T01:59:04.961Z,1781.00
2022-10-18T01:59:15.090Z,1783.00
2022-10-18T01:59:25.143Z,1784.00
2022-10-18T01:59:35.183Z,1784.00
2022-10-18T01:59:45.227Z,1785.00
2022-10-18T01:59:55.287Z,1786.00
2022-10-18T02:00:05.338Z,1786.00
2022-10-18T02:00:15.393Z,1787.00
2022-10-18T02:00:25.440Z,1785.00
2022-10-18T02:00:35.488Z,1786.00
2022-10-18T02:00:45.535Z,1785.00
2022-10-18T02:00:55.570Z,1783.00
2022-10-18T02:01:05.627Z,1784.00
2022-10-18T02:01:15.751Z,1784.00
2022-10-18T02:01:25.792Z,1785.00
2022-10-18T02:01:35.848Z,1783.00
2022-10-18T02:01:45.889Z,1782.00
2022-10-18T02:01:55.934Z,1779.00
2022-10-18T02:02:05.980Z,1779.00
2022-10-18T02:02:16.024Z,1775.00
2022-10-18T02:02:26.068Z,1774.00
2022-10-18T02:02:36.107Z,1773.00
2022-10-18T02:02:46.153Z,1774.00
2022-10-18T02:02:56.203Z,1774.00
2022-10-18T02:03:06.248Z,1775.00
2022-10-18T02:03:16.280Z,1775.00
2022-10-18T02:03:26.325Z,1776.00
2022-10-18T02:03:36.371Z,1778.00
2022-10-18T02:03:46.420Z,1778.00
2022-10-18T02:03:56.467Z,1779.00
2022-10-18T02:04:06.508Z,1777.00
2022-10-18T02:04:16.560Z,1779.00
2022-10-18T02:04:26.603Z,1780.00
2022-10-18T02:04:36.646Z,1779.00
2022-10-18T02:04:46.689Z,1779.00
2022-10-18T02:04:56.728Z,1778.00
2022-10-18T02:05:06.767Z,1778.00
2022-10-18T02:05:16.812Z,1778.00
2022-10-18T02:05:26.868Z,1778.00
2022-10-18T02:05:36.915Z,1777.00
2022-10-18T02:05:46.980Z,1779.00
2022-10-18T02:05:57.024Z,1780.00
2022-10-18T02:06:07.067Z,1779.00
2022-10-18T02:06:17.130Z,1782.00
2022-10-18T02:06:27.170Z,1783.00
2022-10-18T02:06:37.212Z,1782.00
2022-10-18T02:06:47.251Z,1781.00
2022-10-18T02:06:57.302Z,1779.00
2022-10-18T02:07:07.362Z,1779.00
2022-10-18T02:07:17.402Z,1780.00
2022-10-18T02:07:27.449Z,1779.00
2022-10-18T02:07:37.492Z,1781.00
2022-10-18T02:07:55.281Z,1782.00
2022-10-18T02:08:19.259Z,1781.00
2022-10-18T02:08:23.237Z,1780.00
2022-10-18T02:08:27.921Z,1781.00
2022-10-18T02:08:37.971Z,1782.00
2022-10-18T02:08:48.009Z,1782.00
2022-10-18T02:08:58.055Z,1779.00
2022-10-18T02:09:08.096Z,1779.00
2022-10-18T02:09:18.139Z,1779.00
2022-10-18T02:09:28.182Z,1779.00
2022-10-18T02:09:38.221Z,1779.00
2022-10-18T02:09:48.266Z,1781.00
2022-10-18T02:09:58.319Z,1780.00
2022-10-18T02:10:08.424Z,1781.00
2022-10-18T02:10:18.480Z,1782.00
2022-10-18T02:10:28.521Z,1781.00
2022-10-18T02:10:38.591Z,1781.00
2022-10-18T02:10:48.639Z,1779.00
2022-10-18T02:10:58.679Z,1776.00
2022-10-18T02:11:08.725Z,1777.00
2022-10-18T02:11:18.766Z,1776.00
2022-10-18T02:11:28.808Z,1775.00
2022-10-18T02:11:38.850Z,1775.00
2022-10-18T02:11:48.899Z,1776.00
2022-10-18T02:11:58.951Z,1777.00
2022-10-18T02:12:08.991Z,1778.00
2022-10-18T02:12:19.032Z,1776.00
2022-10-18T02:12:29.328Z,1778.00
2022-10-18T02:12:39.152Z,1776.00
2022-10-18T02:12:49.200Z,1775.00
2022-10-18T02:12:59.244Z,1775.00
2022-10-18T02:13:09.296Z,1776.00
2022-10-18T02:13:19.341Z,1776.00
2022-10-18T02:13:29.399Z,1774.00
2022-10-18T02:13:39.430Z,1771.00
2022-10-18T02:13:49.473Z,1772.00
2022-10-18T02:13:59.541Z,1773.00
2022-10-18T02:14:09.579Z,1774.00
2022-10-18T02:14:19.632Z,1776.00
2022-10-18T02:14:29.673Z,1776.00
2022-10-18T02:14:39.704Z,1777.00
2022-10-18T02:14:49.753Z,1779.00
2022-10-18T02:14:59.809Z,1779.00
2022-10-18T02:15:09.850Z,1781.00
2022-10-18T02:15:19.895Z,1781.00
2022-10-18T02:15:29.937Z,1780.00
2022-10-18T02:15:40.000Z,1779.00
2022-10-18T02:15:50.042Z,1779.00
2022-10-18T02:16:00.087Z,1778.00
2022-10-18T02:16:10.121Z,1779.00
2022-10-18T02:16:20.170Z,1778.00
2022-10-18T02:16:30.210Z,1779.00
2022-10-18T02:16:40.255Z,1779.00
2022-10-18T02:16:50.300Z,1779.00
2022-10-18T02:17:00.359Z,1779.00
2022-10-18T02:17:10.396Z,1778.00
2022-10-18T02:17:20.450Z,1776.00
2022-10-18T02:17:30.497Z,1776.00
2022-10-18T02:17:40.537Z,1778.00
2022-10-18T02:17:50.581Z,1778.00
2022-10-18T02:18:00.624Z,1777.00
2022-10-18T02:18:10.659Z,1776.00
2022-10-18T02:18:20.714Z,1774.00
2022-10-18T02:18:30.752Z,1772.00
2022-10-18T02:18:40.816Z,1772.00
2022-10-18T02:18:50.859Z,1773.00